Terminal Aerodrome Forecast
Issued by NWS Charleston, WV

Current Version | Previous Version | Graphics & Text | Print | Product List | Glossary On
Versions: 1 2 3 4 5 6 7 8 9 10 11 12 13 14 15 16 17 18 19 20 21 22 23 24 25 26
259
FTUS41 KRLX 201139
TAFPKB
TAF
KPKB 201139Z 2012/2112 00000KT 5SM BR BKN050
     FM201300 26003KT P6SM BKN050
     FM201700 26005KT P6SM VCTS BKN050CB
     FM202200 VRB03KT P6SM BKN150
     FM210700 00000KT 4SM BR SCT150
     FM210900 00000KT 1SM BR SCT001=

USA.gov is the U.S. government's official web portal to all federal, state and local government web resources and services.